EBLGEKBI

Guest
Details From EBLG - Liege
To EKBI - Billund
Flight Number -
Tags generated
Created
Modified
Stats Distance 346 nm / 641 km
Max Altitude 35,000 ft / 10,668 m
Waypoints 6
Social Downloads 0
Likes 0
Share VATSIM

Download

Looking for another format? Having issues loading an existing format? Contact us
Advertisement - Login to hide

Notes

Basic altitude profile: - Ascent Rate: 2500ft/min - Ascent Speed: 250kts - Cruise Altitude: 33000ft - Cruise Speed: 420kts - Descent Rate: 2500ft/min - Descent Speed: 250kts Options: - Use NATs: no - Use PACOTS: no - Use low airways: yes - Use high airways: yes

Route

EBLG GIX TL2N IBAGU TR10 LECKY EKBI

ID Type Via Altitude Latitude Longitude Leg Dist Tot Dist Heading (true) Name
O EBLG APT - 0 ft / 0 m 50.63812˚ 5.44314˚ - 0 nm - Liege
GIX GS - 9,800 ft / 2,987 m 50.96229˚ 6.05642˚ 30 nm 30 nm 50° / 50° GS
IBAGU FIX TL2N (AWY-HI) 35,000 ft / 10,668 m 52.34500˚ 7.53983˚ 99 nm 130 nm 33° / 34° -
WTM VOR TR10 (AWY-HI) 29,600 ft / 9,022 m 53.55433˚ 7.72517˚ 72 nm 203 nm 5° / 5° -
LECKY FIX TR10 (AWY-HI) 25,000 ft / 7,620 m 54.79233˚ 8.94209˚ 85 nm 288 nm 29° / 30° -
O EKBI APT - 0 ft / 0 m 55.73618˚ 9.15206˚ 57 nm 345 nm 7° / 7° Billund

Altitude Profile

Advertisement - Login to hide

Weather


0- 5 10 15 20 25 30 35+ Temperature / ° C

Clouds and Precipitation
Forecast for 2018-05-25 18:00 UTC. Updated 2 hours ago

Ground ~20,000 ft ~40,000 ft Winds

EBLG

Details ICAO EBLG (LGG)
Name Liege
Region Belgium
Timezone Europe/Brussels (UTC+2.0)
Stats Elevation 645 ft / 197 m (AMSL)
Location 50.638120° 5.443140°
Runways 2
Magnetic Variation 1.488° E

METAR

EBLG 251850Z 07006KT 9999 FEW040 22/13 Q1017 NOSIG

Decode

TAF

TAF EBLG 251703Z 2518/2624 05004KT 9999 FEW040 PROB30 TEMPO 2518/2521 VRB15G25KT 3000 SHRA TSRAGR PROB30 TEMPO 2602/2607 3500 BR

Decode

Departure Runways

ID Width Length Bearing (true) Bearing (mag) Surface Threshold Offset Overrun Length
05L 148 ft / 45 m 7,664 ft / 2,336 m 44.99° 43.50° Asphalt 151 ft / 46 m 0 ft / 0 m
05R 148 ft / 45 m 10,792 ft / 3,290 m 44.99° 43.50° Asphalt 151 ft / 46 m 0 ft / 0 m
23L 148 ft / 45 m 10,792 ft / 3,290 m 225.01° 223.52° Asphalt 151 ft / 46 m 0 ft / 0 m
23R 148 ft / 45 m 7,664 ft / 2,336 m 225.01° 223.52° Asphalt 151 ft / 46 m 0 ft / 0 m

EKBI

Details ICAO EKBI (BLL)
Name Billund
Region Denmark / Faroe Islands
Timezone Europe/Copenhagen (UTC+2.0)
Stats Elevation 247 ft / 75 m (AMSL)
Location 55.736183° 9.152056°
Runways 2
Magnetic Variation 2.589° E

METAR

EKBI 251850Z 09006KT CAVOK 18/09 Q1025

Decode

TAF

TAF EKBI 251114Z 2512/2612 08012KT CAVOK= TAF EKAH 251114Z 2512/2612 09008KT CAVOK

Decode

Destination Runways

ID Width Length Bearing (true) Bearing (mag) Surface Threshold Offset Overrun Length
09 148 ft / 45 m 9,165 ft / 2,794 m 86.83° 84.24° Asphalt 351 ft / 107 m 0 ft / 0 m
10 98 ft / 30 m 2,017 ft / 615 m 93.89° 91.30° Grass 0 ft / 0 m 0 ft / 0 m
27 148 ft / 45 m 9,165 ft / 2,794 m 266.87° 264.28° Asphalt 351 ft / 107 m 0 ft / 0 m
28 98 ft / 30 m 2,017 ft / 615 m 273.89° 271.30° Grass 0 ft / 0 m 0 ft / 0 m

Approach Navaids

Runway Type Ident Frequency Range Bearing (true) Bearing (mag) Slope Elevation
09 Localiser BIL 111.70 MHz 18 nm / 33 km 86.87° 84.28° - 247 ft / 75 m (AMSL)
09 Glidescope BIL 111.70 MHz 10 nm / 19 km 86.85° 84.26° 3.00° 247 ft / 75 m (AMSL)
27 Localiser LEL 110.70 MHz 18 nm / 33 km 266.83° 264.24° - 247 ft / 75 m (AMSL)
27 Glidescope LEL 110.70 MHz 10 nm / 19 km 266.85° 264.26° 3.00° 247 ft / 75 m (AMSL)
27 DME LEL 110.70 MHz 18 nm / 33 km - - - 246 ft / 75 m (AMSL)